sensor_id;sensor_type;location;lat;lon;timestamp;temperature;humidity
4922;DHT22;16625;53.624;10.106;2023-05-28T00:02:02;11.00;1.00
4922;DHT22;16625;53.624;10.106;2023-05-28T00:04:29;10.50;99.90
4922;DHT22;16625;53.624;10.106;2023-05-28T00:06:57;10.50;99.90
4922;DHT22;16625;53.624;10.106;2023-05-28T00:09:24;10.50;99.90
4922;DHT22;16625;53.624;10.106;2023-05-28T00:11:51;10.70;99.90
4922;DHT22;16625;53.624;10.106;2023-05-28T00:14:18;10.70;1.00
4922;DHT22;16625;53.624;10.106;2023-05-28T00:16:45;11.70;1.00
4922;DHT22;16625;53.624;10.106;2023-05-28T00:19:12;10.60;1.00
4922;DHT22;16625;53.624;10.106;2023-05-28T00:21:39;11.80;1.00
4922;DHT22;16625;53.624;10.106;2023-05-28T00:24:07;10.20;1.00
4922;DHT22;16625;53.624;10.106;2023-05-28T00:26:34;10.20;1.00
4922;DHT22;16625;53.624;10.106;2023-05-28T00:29:02;10.10;1.00
4922;DHT22;16625;53.624;10.106;2023-05-28T00:31:29;11.60;1.00
4922;DHT22;16625;53.624;10.106;2023-05-28T00:33:56;11.10;1.00
4922;DHT22;16625;53.624;10.106;2023-05-28T00:36:23;10.00;1.00
4922;DHT22;16625;53.624;10.106;2023-05-28T00:38:50;10.40;1.00
4922;DHT22;16625;53.624;10.106;2023-05-28T00:41:20;10.50;1.00
4922;DHT22;16625;53.624;10.106;2023-05-28T00:43:48;10.30;1.00
4922;DHT22;16625;53.624;10.106;2023-05-28T00:46:17;9.90;12.80
4922;DHT22;16625;53.624;10.106;2023-05-28T00:48:45;11.20;47.00
4922;DHT22;16625;53.624;10.106;2023-05-28T00:51:13;9.80;59.20
4922;DHT22;16625;53.624;10.106;2023-05-28T00:53:41;10.80;87.50
4922;DHT22;16625;53.624;10.106;2023-05-28T00:56:09;9.70;99.90
4922;DHT22;16625;53.624;10.106;2023-05-28T00:58:38;10.20;99.90
4922;DHT22;16625;53.624;10.106;2023-05-28T01:01:06;9.70;99.90
4922;DHT22;16625;53.624;10.106;2023-05-28T01:03:33;9.70;99.90
4922;DHT22;16625;53.624;10.106;2023-05-28T01:06:04;9.60;99.90
4922;DHT22;16625;53.624;10.106;2023-05-28T01:08:33;9.60;99.90
4922;DHT22;16625;53.624;10.106;2023-05-28T01:11:00;9.60;99.90
4922;DHT22;16625;53.624;10.106;2023-05-28T01:13:27;10.30;99.90
4922;DHT22;16625;53.624;10.106;2023-05-28T01:15:55;10.00;99.90
4922;DHT22;16625;53.624;10.106;2023-05-28T01:18:22;9.50;99.90
4922;DHT22;16625;53.624;10.106;2023-05-28T01:20:50;9.90;99.90
4922;DHT22;16625;53.624;10.106;2023-05-28T01:23:18;9.40;99.90
4922;DHT22;16625;53.624;10.106;2023-05-28T01:25:51;9.90;99.90
4922;DHT22;16625;53.624;10.106;2023-05-28T01:28:20;10.50;99.90
4922;DHT22;16625;53.624;10.106;2023-05-28T01:30:47;10.40;99.90
4922;DHT22;16625;53.624;10.106;2023-05-28T01:33:14;9.30;99.90
4922;DHT22;16625;53.624;10.106;2023-05-28T01:35:42;9.20;99.90
4922;DHT22;16625;53.624;10.106;2023-05-28T01:38:10;9.80;99.90
4922;DHT22;16625;53.624;10.106;2023-05-28T01:40:39;9.20;99.90
4922;DHT22;16625;53.624;10.106;2023-05-28T01:43:08;10.10;99.90
4922;DHT22;16625;53.624;10.106;2023-05-28T01:45:35;9.10;99.90
4922;DHT22;16625;53.624;10.106;2023-05-28T01:48:02;9.10;99.90
4922;DHT22;16625;53.624;10.106;2023-05-28T01:50:29;9.10;99.90
4922;DHT22;16625;53.624;10.106;2023-05-28T01:52:58;11.20;99.90
4922;DHT22;16625;53.624;10.106;2023-05-28T01:55:24;10.20;99.90
4922;DHT22;16625;53.624;10.106;2023-05-28T01:57:51;9.00;99.90
4922;DHT22;16625;53.624;10.106;2023-05-28T02:00:20;9.30;99.90
4922;DHT22;16625;53.624;10.106;2023-05-28T02:02:49;8.80;99.90
4922;DHT22;16625;53.624;10.106;2023-05-28T02:05:17;8.80;99.90
4922;DHT22;16625;53.624;10.106;2023-05-28T02:07:44;8.80;99.90
4922;DHT22;16625;53.624;10.106;2023-05-28T02:10:11;8.70;99.90
4922;DHT22;16625;53.624;10.106;2023-05-28T02:12:38;9.00;99.90
4922;DHT22;16625;53.624;10.106;2023-05-28T02:15:06;10.60;99.90
4922;DHT22;16625;53.624;10.106;2023-05-28T02:17:35;8.60;99.90
4922;DHT22;16625;53.624;10.106;2023-05-28T02:20:02;9.70;99.90
4922;DHT22;16625;53.624;10.106;2023-05-28T02:22:29;8.60;99.90
4922;DHT22;16625;53.624;10.106;2023-05-28T02:24:56;10.70;99.90
4922;DHT22;16625;53.624;10.106;2023-05-28T02:27:23;8.80;99.90
4922;DHT22;16625;53.624;10.106;2023-05-28T02:29:50;9.20;99.90
4922;DHT22;16625;53.624;10.106;2023-05-28T02:32:17;9.30;99.90
4922;DHT22;16625;53.624;10.106;2023-05-28T02:34:45;8.40;99.90
4922;DHT22;16625;53.624;10.106;2023-05-28T02:37:12;8.40;99.90
4922;DHT22;16625;53.624;10.106;2023-05-28T02:39:39;8.40;99.90
4922;DHT22;16625;53.624;10.106;2023-05-28T02:42:06;10.40;99.90
4922;DHT22;16625;53.624;10.106;2023-05-28T02:44:33;8.30;99.90
4922;DHT22;16625;53.624;10.106;2023-05-28T02:47:00;8.30;99.90
4922;DHT22;16625;53.624;10.106;2023-05-28T02:49:27;9.40;99.90
4922;DHT22;16625;53.624;10.106;2023-05-28T02:51:55;8.50;99.90
4922;DHT22;16625;53.624;10.106;2023-05-28T02:54:23;10.00;99.90
4922;DHT22;16625;53.624;10.106;2023-05-28T02:56:51;9.90;99.90
4922;DHT22;16625;53.624;10.106;2023-05-28T02:59:18;8.10;99.90
4922;DHT22;16625;53.624;10.106;2023-05-28T03:01:45;9.60;99.90
4922;DHT22;16625;53.624;10.106;2023-05-28T03:04:12;8.10;99.90
4922;DHT22;16625;53.624;10.106;2023-05-28T03:06:39;8.00;99.90
4922;DHT22;16625;53.624;10.106;2023-05-28T03:09:08;9.40;99.90
4922;DHT22;16625;53.624;10.106;2023-05-28T03:11:35;10.00;99.90
4922;DHT22;16625;53.624;10.106;2023-05-28T03:14:02;8.10;99.90
4922;DHT22;16625;53.624;10.106;2023-05-28T03:16:28;9.60;99.90
4922;DHT22;16625;53.624;10.106;2023-05-28T03:18:57;10.20;99.90
4922;DHT22;16625;53.624;10.106;2023-05-28T03:21:24;10.20;99.90
4922;DHT22;16625;53.624;10.106;2023-05-28T03:23:51;9.60;99.90
4922;DHT22;16625;53.624;10.106;2023-05-28T03:26:19;8.30;99.90
4922;DHT22;16625;53.624;10.106;2023-05-28T03:28:46;8.30;99.90
4922;DHT22;16625;53.624;10.106;2023-05-28T03:31:14;8.30;99.90
4922;DHT22;16625;53.624;10.106;2023-05-28T03:33:41;9.60;99.90
4922;DHT22;16625;53.624;10.106;2023-05-28T03:36:08;8.30;99.90
4922;DHT22;16625;53.624;10.106;2023-05-28T03:38:35;8.40;99.90
4922;DHT22;16625;53.624;10.106;2023-05-28T03:41:02;8.40;99.90
4922;DHT22;16625;53.624;10.106;2023-05-28T03:43:34;8.50;99.90
4922;DHT22;16625;53.624;10.106;2023-05-28T03:46:00;10.40;99.90
4922;DHT22;16625;53.624;10.106;2023-05-28T03:48:27;10.40;99.90
4922;DHT22;16625;53.624;10.106;2023-05-28T03:50:54;9.80;99.90
4922;DHT22;16625;53.624;10.106;2023-05-28T03:53:22;9.70;99.90
4922;DHT22;16625;53.624;10.106;2023-05-28T03:55:49;8.50;99.90
4922;DHT22;16625;53.624;10.106;2023-05-28T03:58:16;8.50;99.90
4922;DHT22;16625;53.624;10.106;2023-05-28T04:00:45;8.50;99.90
4922;DHT22;16625;53.624;10.106;2023-05-28T04:03:12;8.60;99.90
4922;DHT22;16625;53.624;10.106;2023-05-28T04:05:38;10.70;99.90
4922;DHT22;16625;53.624;10.106;2023-05-28T04:08:05;8.80;99.90
4922;DHT22;16625;53.624;10.106;2023-05-28T04:10:32;8.90;99.90
4922;DHT22;16625;53.624;10.106;2023-05-28T04:12:59;9.10;99.90
4922;DHT22;16625;53.624;10.106;2023-05-28T04:15:26;9.00;99.90
4922;DHT22;16625;53.624;10.106;2023-05-28T04:17:54;9.20;99.90
4922;DHT22;16625;53.624;10.106;2023-05-28T04:20:21;9.30;99.90
4922;DHT22;16625;53.624;10.106;2023-05-28T04:22:48;9.40;99.90
4922;DHT22;16625;53.624;10.106;2023-05-28T04:25:16;9.40;99.90
4922;DHT22;16625;53.624;10.106;2023-05-28T04:27:44;9.40;99.90
4922;DHT22;16625;53.624;10.106;2023-05-28T04:30:12;9.50;99.90
4922;DHT22;16625;53.624;10.106;2023-05-28T04:32:39;9.50;99.90
4922;DHT22;16625;53.624;10.106;2023-05-28T04:35:08;10.00;99.90
4922;DHT22;16625;53.624;10.106;2023-05-28T04:37:35;9.80;99.90
4922;DHT22;16625;53.624;10.106;2023-05-28T04:40:02;10.80;99.90
4922;DHT22;16625;53.624;10.106;2023-05-28T04:42:29;10.00;99.90
4922;DHT22;16625;53.624;10.106;2023-05-28T04:44:56;10.10;99.90
4922;DHT22;16625;53.624;10.106;2023-05-28T04:47:24;11.60;99.90
4922;DHT22;16625;53.624;10.106;2023-05-28T04:49:51;10.80;99.90
4922;DHT22;16625;53.624;10.106;2023-05-28T04:52:19;10.70;99.90
4922;DHT22;16625;53.624;10.106;2023-05-28T04:54:48;10.40;99.90
4922;DHT22;16625;53.624;10.106;2023-05-28T04:57:14;10.50;99.90
4922;DHT22;16625;53.624;10.106;2023-05-28T04:59:42;10.70;99.90
4922;DHT22;16625;53.624;10.106;2023-05-28T05:02:09;12.30;99.90
4922;DHT22;16625;53.624;10.106;2023-05-28T05:04:36;12.60;55.10
4922;DHT22;16625;53.624;10.106;2023-05-28T05:07:03;13.40;1.00
4922;DHT22;16625;53.624;10.106;2023-05-28T05:09:31;11.30;99.90
4922;DHT22;16625;53.624;10.106;2023-05-28T05:11:58;12.70;99.90
4922;DHT22;16625;53.624;10.106;2023-05-28T05:14:25;11.60;99.90
4922;DHT22;16625;53.624;10.106;2023-05-28T05:16:52;13.00;21.30
4922;DHT22;16625;53.624;10.106;2023-05-28T05:19:19;12.10;1.00
4922;DHT22;16625;53.624;10.106;2023-05-28T05:21:46;12.20;32.60
4922;DHT22;16625;53.624;10.106;2023-05-28T05:24:13;12.80;99.90
4922;DHT22;16625;53.624;10.106;2023-05-28T05:26:41;12.40;99.90
4922;DHT22;16625;53.624;10.106;2023-05-28T05:29:08;12.50;41.80
4922;DHT22;16625;53.624;10.106;2023-05-28T05:31:35;12.60;47.70
4922;DHT22;16625;53.624;10.106;2023-05-28T05:34:02;13.90;1.00
4922;DHT22;16625;53.624;10.106;2023-05-28T05:36:29;13.90;99.90
4922;DHT22;16625;53.624;10.106;2023-05-28T05:38:58;13.10;52.00
4922;DHT22;16625;53.624;10.106;2023-05-28T05:41:25;13.20;1.00
4922;DHT22;16625;53.624;10.106;2023-05-28T05:43:53;13.20;1.00
4922;DHT22;16625;53.624;10.106;2023-05-28T05:46:20;13.20;1.00
4922;DHT22;16625;53.624;10.106;2023-05-28T05:48:47;13.20;1.00
4922;DHT22;16625;53.624;10.106;2023-05-28T05:51:14;13.30;1.00
4922;DHT22;16625;53.624;10.106;2023-05-28T05:53:44;13.40;99.90
4922;DHT22;16625;53.624;10.106;2023-05-28T05:56:11;13.40;99.90
4922;DHT22;16625;53.624;10.106;2023-05-28T05:58:37;13.80;99.90
4922;DHT22;16625;53.624;10.106;2023-05-28T06:01:06;14.40;90.00
4922;DHT22;16625;53.624;10.106;2023-05-28T06:03:32;13.60;99.90
4922;DHT22;16625;53.624;10.106;2023-05-28T06:06:00;13.90;1.00
4922;DHT22;16625;53.624;10.106;2023-05-28T06:08:27;14.00;99.90
4922;DHT22;16625;53.624;10.106;2023-05-28T06:10:54;14.80;1.00
4922;DHT22;16625;53.624;10.106;2023-05-28T06:13:21;15.20;99.90
4922;DHT22;16625;53.624;10.106;2023-05-28T06:15:48;14.40;70.80
4922;DHT22;16625;53.624;10.106;2023-05-28T06:18:16;14.60;1.00
4922;DHT22;16625;53.624;10.106;2023-05-28T06:20:44;15.80;1.00
4922;DHT22;16625;53.624;10.106;2023-05-28T06:23:12;15.60;99.90
4922;DHT22;16625;53.624;10.106;2023-05-28T06:25:39;14.90;76.60
4922;DHT22;16625;53.624;10.106;2023-05-28T06:28:06;14.80;1.00
4922;DHT22;16625;53.624;10.106;2023-05-28T06:30:33;14.90;99.90
4922;DHT22;16625;53.624;10.106;2023-05-28T06:33:00;14.90;1.00
4922;DHT22;16625;53.624;10.106;2023-05-28T06:35:28;14.80;1.00
4922;DHT22;16625;53.624;10.106;2023-05-28T06:37:55;14.80;1.00
4922;DHT22;16625;53.624;10.106;2023-05-28T06:40:22;14.90;1.00
4922;DHT22;16625;53.624;10.106;2023-05-28T06:42:49;15.10;1.00
4922;DHT22;16625;53.624;10.106;2023-05-28T06:45:16;15.10;1.00
4922;DHT22;16625;53.624;10.106;2023-05-28T06:47:44;15.20;1.00
4922;DHT22;16625;53.624;10.106;2023-05-28T06:50:11;15.50;99.90
4922;DHT22;16625;53.624;10.106;2023-05-28T06:52:39;16.40;99.90
4922;DHT22;16625;53.624;10.106;2023-05-28T06:55:06;16.10;99.90
4922;DHT22;16625;53.624;10.106;2023-05-28T06:57:34;16.40;1.00
4922;DHT22;16625;53.624;10.106;2023-05-28T07:00:02;16.50;99.90
4922;DHT22;16625;53.624;10.106;2023-05-28T07:02:34;16.50;99.90
4922;DHT22;16625;53.624;10.106;2023-05-28T07:05:01;16.70;99.90
4922;DHT22;16625;53.624;10.106;2023-05-28T07:07:30;17.00;99.90
4922;DHT22;16625;53.624;10.106;2023-05-28T07:09:58;18.20;99.90
4922;DHT22;16625;53.624;10.106;2023-05-28T07:12:25;16.80;99.90
4922;DHT22;16625;53.624;10.106;2023-05-28T07:14:52;16.40;99.90
4922;DHT22;16625;53.624;10.106;2023-05-28T07:17:19;16.30;99.90
4922;DHT22;16625;53.624;10.106;2023-05-28T07:19:48;17.40;99.90
4922;DHT22;16625;53.624;10.106;2023-05-28T07:22:15;16.20;99.90
4922;DHT22;16625;53.624;10.106;2023-05-28T07:24:44;16.10;99.90
4922;DHT22;16625;53.624;10.106;2023-05-28T07:27:20;16.80;99.90
4922;DHT22;16625;53.624;10.106;2023-05-28T07:32:24;18.20;99.90
4922;DHT22;16625;53.624;10.106;2023-05-28T07:37:19;15.90;1.00
4922;DHT22;16625;53.624;10.106;2023-05-28T07:39:52;15.90;1.00
4922;DHT22;16625;53.624;10.106;2023-05-28T07:42:21;16.00;99.90
4922;DHT22;16625;53.624;10.106;2023-05-28T07:44:51;16.00;99.90
4922;DHT22;16625;53.624;10.106;2023-05-28T07:47:18;16.00;99.90
4922;DHT22;16625;53.624;10.106;2023-05-28T07:49:45;16.20;99.90
4922;DHT22;16625;53.624;10.106;2023-05-28T07:52:12;16.50;99.90
4922;DHT22;16625;53.624;10.106;2023-05-28T07:54:39;17.30;1.00
4922;DHT22;16625;53.624;10.106;2023-05-28T07:57:06;16.80;1.00
4922;DHT22;16625;53.624;10.106;2023-05-28T07:59:34;18.50;1.00
4922;DHT22;16625;53.624;10.106;2023-05-28T08:02:01;17.10;99.90
4922;DHT22;16625;53.624;10.106;2023-05-28T08:04:28;17.10;17.40
4922;DHT22;16625;53.624;10.106;2023-05-28T08:06:55;17.30;99.90
4922;DHT22;16625;53.624;10.106;2023-05-28T08:09:22;17.50;94.80
4922;DHT22;16625;53.624;10.106;2023-05-28T08:11:49;17.60;1.00
4922;DHT22;16625;53.624;10.106;2023-05-28T08:14:16;17.60;99.90
4922;DHT22;16625;53.624;10.106;2023-05-28T08:16:44;17.60;99.90
4922;DHT22;16625;53.624;10.106;2023-05-28T08:19:11;17.60;99.90
4922;DHT22;16625;53.624;10.106;2023-05-28T08:21:38;18.40;99.90
4922;DHT22;16625;53.624;10.106;2023-05-28T08:24:05;17.90;99.90
4922;DHT22;16625;53.624;10.106;2023-05-28T08:26:32;18.10;25.70
4922;DHT22;16625;53.624;10.106;2023-05-28T08:28:59;18.10;10.70
4922;DHT22;16625;53.624;10.106;2023-05-28T08:31:27;18.10;24.00
4922;DHT22;16625;53.624;10.106;2023-05-28T08:33:55;18.20;1.00
4922;DHT22;16625;53.624;10.106;2023-05-28T08:36:22;18.30;1.00
4922;DHT22;16625;53.624;10.106;2023-05-28T08:38:49;18.40;1.00
4922;DHT22;16625;53.624;10.106;2023-05-28T08:41:16;18.60;1.00
4922;DHT22;16625;53.624;10.106;2023-05-28T08:43:43;18.80;1.00
4922;DHT22;16625;53.624;10.106;2023-05-28T08:46:10;18.90;1.00
4922;DHT22;16625;53.624;10.106;2023-05-28T08:48:40;19.10;1.00
4922;DHT22;16625;53.624;10.106;2023-05-28T08:51:09;19.30;1.00
4922;DHT22;16625;53.624;10.106;2023-05-28T08:53:40;19.30;99.90
4922;DHT22;16625;53.624;10.106;2023-05-28T08:56:07;19.30;99.90
4922;DHT22;16625;53.624;10.106;2023-05-28T08:58:35;19.40;99.90
4922;DHT22;16625;53.624;10.106;2023-05-28T09:01:04;19.60;99.90
4922;DHT22;16625;53.624;10.106;2023-05-28T09:03:34;19.60;99.90
4922;DHT22;16625;53.624;10.106;2023-05-28T09:06:01;19.80;1.00
4922;DHT22;16625;53.624;10.106;2023-05-28T09:08:30;19.80;99.90
4922;DHT22;16625;53.624;10.106;2023-05-28T09:10:57;19.90;99.90
4922;DHT22;16625;53.624;10.106;2023-05-28T09:13:25;20.00;99.90
4922;DHT22;16625;53.624;10.106;2023-05-28T09:15:52;20.00;99.90
4922;DHT22;16625;53.624;10.106;2023-05-28T09:18:20;20.00;99.90
4922;DHT22;16625;53.624;10.106;2023-05-28T09:20:47;20.10;99.90
4922;DHT22;16625;53.624;10.106;2023-05-28T09:23:16;20.10;99.90
4922;DHT22;16625;53.624;10.106;2023-05-28T09:25:45;20.20;99.90
4922;DHT22;16625;53.624;10.106;2023-05-28T09:28:12;20.00;99.90
4922;DHT22;16625;53.624;10.106;2023-05-28T09:30:40;20.00;99.90
4922;DHT22;16625;53.624;10.106;2023-05-28T09:33:07;20.10;99.90
4922;DHT22;16625;53.624;10.106;2023-05-28T09:35:35;20.30;99.90
4922;DHT22;16625;53.624;10.106;2023-05-28T09:38:04;20.40;99.90
4922;DHT22;16625;53.624;10.106;2023-05-28T09:40:37;20.60;99.90
4922;DHT22;16625;53.624;10.106;2023-05-28T09:43:06;20.70;99.90
4922;DHT22;16625;53.624;10.106;2023-05-28T09:45:34;20.80;99.90
4922;DHT22;16625;53.624;10.106;2023-05-28T09:48:01;20.80;99.90
4922;DHT22;16625;53.624;10.106;2023-05-28T09:50:28;20.70;99.90
4922;DHT22;16625;53.624;10.106;2023-05-28T09:52:56;20.90;99.90
4922;DHT22;16625;53.624;10.106;2023-05-28T09:55:24;21.10;99.90
4922;DHT22;16625;53.624;10.106;2023-05-28T09:57:58;21.20;99.90
4922;DHT22;16625;53.624;10.106;2023-05-28T10:00:30;21.20;99.90
4922;DHT22;16625;53.624;10.106;2023-05-28T10:03:07;21.30;99.90
4922;DHT22;16625;53.624;10.106;2023-05-28T10:05:39;21.40;99.90
4922;DHT22;16625;53.624;10.106;2023-05-28T10:08:09;21.50;99.90
4922;DHT22;16625;53.624;10.106;2023-05-28T10:10:40;21.50;99.90
4922;DHT22;16625;53.624;10.106;2023-05-28T10:13:07;21.50;99.90
4922;DHT22;16625;53.624;10.106;2023-05-28T10:15:37;22.00;99.90
4922;DHT22;16625;53.624;10.106;2023-05-28T10:18:05;22.30;99.90
4922;DHT22;16625;53.624;10.106;2023-05-28T10:20:32;22.50;99.90
4922;DHT22;16625;53.624;10.106;2023-05-28T10:23:00;22.20;99.90
4922;DHT22;16625;53.624;10.106;2023-05-28T10:25:27;21.70;99.90
4922;DHT22;16625;53.624;10.106;2023-05-28T10:27:58;21.40;99.90
4922;DHT22;16625;53.624;10.106;2023-05-28T10:30:30;21.30;99.90
4922;DHT22;16625;53.624;10.106;2023-05-28T10:32:59;21.10;99.90
4922;DHT22;16625;53.624;10.106;2023-05-28T10:35:26;21.30;99.90
4922;DHT22;16625;53.624;10.106;2023-05-28T10:38:05;21.30;99.90
4922;DHT22;16625;53.624;10.106;2023-05-28T10:40:34;21.90;99.90
4922;DHT22;16625;53.624;10.106;2023-05-28T10:43:02;22.20;99.90
4922;DHT22;16625;53.624;10.106;2023-05-28T10:45:35;22.30;99.90
4922;DHT22;16625;53.624;10.106;2023-05-28T10:48:04;22.10;99.90
4922;DHT22;16625;53.624;10.106;2023-05-28T10:50:32;22.00;99.90
4922;DHT22;16625;53.624;10.106;2023-05-28T10:53:06;21.40;99.90
4922;DHT22;16625;53.624;10.106;2023-05-28T10:55:49;21.70;99.90
4922;DHT22;16625;53.624;10.106;2023-05-28T10:58:23;22.30;99.90
4922;DHT22;16625;53.624;10.106;2023-05-28T11:00:51;22.60;99.90
4922;DHT22;16625;53.624;10.106;2023-05-28T11:03:44;22.90;99.90
4922;DHT22;16625;53.624;10.106;2023-05-28T11:06:12;23.00;99.90
4922;DHT22;16625;53.624;10.106;2023-05-28T11:08:41;22.80;99.90
4922;DHT22;16625;53.624;10.106;2023-05-28T11:11:11;22.90;99.90
4922;DHT22;16625;53.624;10.106;2023-05-28T11:13:38;23.10;99.90
4922;DHT22;16625;53.624;10.106;2023-05-28T11:16:07;23.00;99.90
4922;DHT22;16625;53.624;10.106;2023-05-28T11:18:34;23.40;99.90
4922;DHT22;16625;53.624;10.106;2023-05-28T11:21:07;23.40;99.90
4922;DHT22;16625;53.624;10.106;2023-05-28T11:23:35;22.80;99.90
4922;DHT22;16625;53.624;10.106;2023-05-28T11:26:03;22.40;99.90
4922;DHT22;16625;53.624;10.106;2023-05-28T11:28:31;22.50;99.90
4922;DHT22;16625;53.624;10.106;2023-05-28T11:30:58;22.20;99.90
4922;DHT22;16625;53.624;10.106;2023-05-28T11:33:28;22.20;99.90
4922;DHT22;16625;53.624;10.106;2023-05-28T11:35:57;21.90;99.90
4922;DHT22;16625;53.624;10.106;2023-05-28T11:38:25;21.70;99.90
4922;DHT22;16625;53.624;10.106;2023-05-28T11:40:58;21.80;99.90
4922;DHT22;16625;53.624;10.106;2023-05-28T11:43:26;21.60;99.90
4922;DHT22;16625;53.624;10.106;2023-05-28T11:45:56;21.80;99.90
4922;DHT22;16625;53.624;10.106;2023-05-28T11:48:24;22.10;99.90
4922;DHT22;16625;53.624;10.106;2023-05-28T11:50:56;22.50;99.90
4922;DHT22;16625;53.624;10.106;2023-05-28T11:53:29;22.90;99.90
4922;DHT22;16625;53.624;10.106;2023-05-28T11:56:04;23.20;99.90
4922;DHT22;16625;53.624;10.106;2023-05-28T11:58:31;23.20;99.90
4922;DHT22;16625;53.624;10.106;2023-05-28T12:00:58;23.00;99.90
4922;DHT22;16625;53.624;10.106;2023-05-28T12:03:26;22.70;99.90
4922;DHT22;16625;53.624;10.106;2023-05-28T12:05:53;22.60;99.90
4922;DHT22;16625;53.624;10.106;2023-05-28T12:08:20;22.40;99.90
4922;DHT22;16625;53.624;10.106;2023-05-28T12:10:48;22.30;99.90
4922;DHT22;16625;53.624;10.106;2023-05-28T12:13:15;22.30;99.90
4922;DHT22;16625;53.624;10.106;2023-05-28T12:15:42;22.60;99.90
4922;DHT22;16625;53.624;10.106;2023-05-28T12:18:10;22.60;99.90
4922;DHT22;16625;53.624;10.106;2023-05-28T12:20:40;22.90;99.90
4922;DHT22;16625;53.624;10.106;2023-05-28T12:23:08;22.90;99.90
4922;DHT22;16625;53.624;10.106;2023-05-28T12:25:45;23.10;99.90
4922;DHT22;16625;53.624;10.106;2023-05-28T12:28:15;23.40;99.90
4922;DHT22;16625;53.624;10.106;2023-05-28T12:30:44;23.70;99.90
4922;DHT22;16625;53.624;10.106;2023-05-28T12:33:13;23.70;99.90
4922;DHT22;16625;53.624;10.106;2023-05-28T12:35:40;23.40;99.90
4922;DHT22;16625;53.624;10.106;2023-05-28T12:38:07;22.90;99.90
4922;DHT22;16625;53.624;10.106;2023-05-28T12:40:34;22.80;99.90
4922;DHT22;16625;53.624;10.106;2023-05-28T12:43:01;23.10;99.90
4922;DHT22;16625;53.624;10.106;2023-05-28T12:45:29;23.30;99.90
4922;DHT22;16625;53.624;10.106;2023-05-28T12:47:56;23.30;99.90
4922;DHT22;16625;53.624;10.106;2023-05-28T12:50:23;23.00;99.90
4922;DHT22;16625;53.624;10.106;2023-05-28T12:52:50;22.80;99.90
4922;DHT22;16625;53.624;10.106;2023-05-28T12:55:17;22.90;99.90
4922;DHT22;16625;53.624;10.106;2023-05-28T12:57:44;23.10;99.90
4922;DHT22;16625;53.624;10.106;2023-05-28T13:00:12;23.30;99.90
4922;DHT22;16625;53.624;10.106;2023-05-28T13:02:41;23.30;99.90
4922;DHT22;16625;53.624;10.106;2023-05-28T13:05:08;23.20;99.90
4922;DHT22;16625;53.624;10.106;2023-05-28T13:07:35;23.20;99.90
4922;DHT22;16625;53.624;10.106;2023-05-28T13:10:03;23.20;99.90
4922;DHT22;16625;53.624;10.106;2023-05-28T13:12:33;23.30;99.90
4922;DHT22;16625;53.624;10.106;2023-05-28T13:15:03;23.40;99.90
4922;DHT22;16625;53.624;10.106;2023-05-28T13:17:30;23.40;99.90
4922;DHT22;16625;53.624;10.106;2023-05-28T13:19:58;23.50;99.90
4922;DHT22;16625;53.624;10.106;2023-05-28T13:22:25;23.10;99.90
4922;DHT22;16625;53.624;10.106;2023-05-28T13:24:52;22.90;99.90
4922;DHT22;16625;53.624;10.106;2023-05-28T13:27:19;22.80;99.90
4922;DHT22;16625;53.624;10.106;2023-05-28T13:29:46;22.50;99.90
4922;DHT22;16625;53.624;10.106;2023-05-28T13:32:13;22.40;99.90
4922;DHT22;16625;53.624;10.106;2023-05-28T13:34:40;22.30;99.90
4922;DHT22;16625;53.624;10.106;2023-05-28T13:37:08;22.40;99.90
4922;DHT22;16625;53.624;10.106;2023-05-28T13:39:35;22.40;99.90
4922;DHT22;16625;53.624;10.106;2023-05-28T13:42:03;22.60;99.90
4922;DHT22;16625;53.624;10.106;2023-05-28T13:44:31;22.80;99.90
4922;DHT22;16625;53.624;10.106;2023-05-28T13:46:58;22.90;99.90
4922;DHT22;16625;53.624;10.106;2023-05-28T13:49:25;23.10;99.90
4922;DHT22;16625;53.624;10.106;2023-05-28T13:51:51;23.30;99.90
4922;DHT22;16625;53.624;10.106;2023-05-28T13:54:20;23.30;99.90
4922;DHT22;16625;53.624;10.106;2023-05-28T13:56:47;23.70;99.90
4922;DHT22;16625;53.624;10.106;2023-05-28T13:59:13;23.80;99.90
4922;DHT22;16625;53.624;10.106;2023-05-28T14:01:40;23.90;99.90
4922;DHT22;16625;53.624;10.106;2023-05-28T14:04:07;23.70;99.90
4922;DHT22;16625;53.624;10.106;2023-05-28T14:06:35;23.80;99.90
4922;DHT22;16625;53.624;10.106;2023-05-28T14:09:02;24.20;99.90
4922;DHT22;16625;53.624;10.106;2023-05-28T14:11:32;24.40;99.90
4922;DHT22;16625;53.624;10.106;2023-05-28T14:13:59;24.60;99.90
4922;DHT22;16625;53.624;10.106;2023-05-28T14:16:25;24.70;99.90
4922;DHT22;16625;53.624;10.106;2023-05-28T14:18:52;24.60;99.90
4922;DHT22;16625;53.624;10.106;2023-05-28T14:21:19;24.60;99.90
4922;DHT22;16625;53.624;10.106;2023-05-28T14:23:46;24.70;99.90
4922;DHT22;16625;53.624;10.106;2023-05-28T14:26:13;24.50;99.90
4922;DHT22;16625;53.624;10.106;2023-05-28T14:28:41;24.30;99.90
4922;DHT22;16625;53.624;10.106;2023-05-28T14:31:08;24.40;99.90
4922;DHT22;16625;53.624;10.106;2023-05-28T14:33:35;24.40;99.90
4922;DHT22;16625;53.624;10.106;2023-05-28T14:36:02;24.10;99.90
4922;DHT22;16625;53.624;10.106;2023-05-28T14:38:29;24.30;99.90
4922;DHT22;16625;53.624;10.106;2023-05-28T14:40:55;24.50;99.90
4922;DHT22;16625;53.624;10.106;2023-05-28T14:43:23;24.40;99.90
4922;DHT22;16625;53.624;10.106;2023-05-28T14:45:51;24.00;99.90
4922;DHT22;16625;53.624;10.106;2023-05-28T14:48:18;23.80;99.90
4922;DHT22;16625;53.624;10.106;2023-05-28T14:50:45;23.60;99.90
4922;DHT22;16625;53.624;10.106;2023-05-28T14:53:11;23.50;99.90
4922;DHT22;16625;53.624;10.106;2023-05-28T14:55:38;23.60;99.90
4922;DHT22;16625;53.624;10.106;2023-05-28T14:58:05;23.70;99.90
4922;DHT22;16625;53.624;10.106;2023-05-28T15:00:32;23.70;99.90
4922;DHT22;16625;53.624;10.106;2023-05-28T15:03:00;23.80;99.90
4922;DHT22;16625;53.624;10.106;2023-05-28T15:05:27;23.80;99.90
4922;DHT22;16625;53.624;10.106;2023-05-28T15:07:54;23.70;99.90
4922;DHT22;16625;53.624;10.106;2023-05-28T15:10:21;23.40;99.90
4922;DHT22;16625;53.624;10.106;2023-05-28T15:12:48;23.30;99.90
4922;DHT22;16625;53.624;10.106;2023-05-28T15:15:15;23.40;99.90
4922;DHT22;16625;53.624;10.106;2023-05-28T15:17:42;23.60;99.90
4922;DHT22;16625;53.624;10.106;2023-05-28T15:20:11;23.60;99.90
4922;DHT22;16625;53.624;10.106;2023-05-28T15:22:37;23.60;99.90
4922;DHT22;16625;53.624;10.106;2023-05-28T15:25:07;23.60;99.90
4922;DHT22;16625;53.624;10.106;2023-05-28T15:27:34;23.70;99.90
4922;DHT22;16625;53.624;10.106;2023-05-28T15:30:02;24.00;99.90
4922;DHT22;16625;53.624;10.106;2023-05-28T15:32:30;23.80;99.90
4922;DHT22;16625;53.624;10.106;2023-05-28T15:34:58;23.60;99.90
4922;DHT22;16625;53.624;10.106;2023-05-28T15:37:26;23.60;99.90
4922;DHT22;16625;53.624;10.106;2023-05-28T15:39:54;23.50;99.90
4922;DHT22;16625;53.624;10.106;2023-05-28T15:42:23;23.40;99.90
4922;DHT22;16625;53.624;10.106;2023-05-28T15:44:51;23.30;99.90